Pagrindinis puslapis
METAR-TAF:

METAR-TAF

Oro uostai :

Roskildė, Danija

platuma: 55-35N, ilguma: 012-08E, Aukštis: 44 m

Dabartinis oras

Ataskaita buvo paskelbta 30 minutes, ne 08:20 UTC
Vėjas 12 kt iš Vakarų
Temperatūra 13°C
Drėgmė 88%
Slėgis 1007 hPa
Matomumas 10 km arba daugiau
Mažai debesys ne aukštis 1200 ft
Išsisklaidę debesys ne aukštis 2000 ft

METAR: EKRK 020820Z 27012KT 9999 FEW012 SCT020 13/11 Q1007

Laikas: 10:50 (08:50 UTC)

Prognozė

Ataskaita buvo paskelbta 30 minutes, ne 08:20 UTC
Prognozė galioja nuo 02 metu 09 UTC su 02 metu 18 UTC
Vėjas 10 kt iš Vakarų/Pietvakarių
Matomumas 10 km arba daugiau
Išsisklaidę debesys ne aukštis 2000 ft
Laikinai
nuo 02 metu 09 UTC su 02 metu 12 UTC
Su prošvaistėmis ne aukštis 1200 ft
Išsisklaidę debesys ne aukštis 2000 ft, Liūtiniai kamuoliniai debesys.
Laikinai
nuo 02 metu 12 UTC su 02 metu 18 UTC
Vėjas 15 kt iš Vakarų/Šiaurės Vakarų su gūsio iki 25 kt

TAF: EKRK 020820Z 0209/0218 25010KT 9999 SCT020 TEMPO 0209/0212 BKN012 SCT020CB TEMPO 0212/0218 30015G25KT

Orai ataskaitas ir orų prognozės (METAR, TAF).

turimą stotys yra geltonos ir raudonos taškus žemėlapyje.

Perkelti pele per norėdami pamatyti stoties vardą.

Tada spustelėkite, norėdami matyti oro stebėjimo ir prognozės.

Norėdami pakeisti žemėlapį: spustelėkite ant žalios mygtukų su juodo kryžiaus žemyn,; žalią mygtuką su brūkšneliu, jei norite nutolinti; arba žalių rodyklių gretimoms žemėlapius.


METAR-TAF: